Time;durP1;ratioP1;P1;durP2;ratioP2;P2;SDS_P1;SDS_P2;PMS_P1;PMS_P2;Temp;Humidity;BMP_temperature;BMP_pressure;BME280_temperature;BME280_humidity;BME280_pressure;Samples;Min_cycle;Max_cycle;Signal;HPM_P1;HPM_P2
2022/07/06 00:00:05;;;;;;;12.80;10.53;;;;;;;15.71;100.00;100107.91;4197714;28;20268;-65
2022/07/06 00:02:32;;;;;;;13.80;11.07;;;;;;;15.80;100.00;100112.16;4201764;28;21174;-63
2022/07/06 00:04:59;;;;;;;13.83;10.63;;;;;;;15.72;100.00;100104.19;4192935;28;20245;-63
2022/07/06 00:07:25;;;;;;;16.27;11.53;;;;;;;15.63;100.00;100103.44;4194892;28;20241;-62
2022/07/06 00:09:52;;;;;;;16.00;11.20;;;;;;;15.65;100.00;100110.47;4196903;28;20240;-64
2022/07/06 00:12:19;;;;;;;15.50;11.17;;;;;;;15.67;100.00;100105.75;4187408;28;20315;-63
2022/07/06 00:14:45;;;;;;;16.37;10.30;;;;;;;15.73;100.00;100110.38;4178955;28;20347;-64
2022/07/06 00:17:12;;;;;;;18.87;11.37;;;;;;;15.61;100.00;100108.13;4194382;28;20240;-63
2022/07/06 00:19:38;;;;;;;12.83;10.40;;;;;;;15.60;100.00;100106.50;4199030;28;20254;-62
2022/07/06 00:22:05;;;;;;;16.30;11.60;;;;;;;15.59;100.00;100095.94;4202780;28;22152;-63
2022/07/06 00:24:32;;;;;;;13.13;9.43;;;;;;;15.67;100.00;100101.22;4190106;28;20235;-63
2022/07/06 00:26:58;;;;;;;15.53;9.83;;;;;;;15.65;100.00;100097.88;4202893;28;20987;-63
2022/07/06 00:29:25;;;;;;;16.87;11.17;;;;;;;15.68;100.00;100096.69;4195622;28;20235;-63
2022/07/06 00:31:51;;;;;;;16.23;10.63;;;;;;;15.55;100.00;100090.13;4197108;28;21198;-63
2022/07/06 00:34:18;;;;;;;12.87;10.60;;;;;;;15.54;100.00;100095.66;4198668;28;20303;-63
2022/07/06 00:36:44;;;;;;;15.17;10.17;;;;;;;15.58;100.00;100089.75;4195325;28;20232;-63
2022/07/06 00:39:11;;;;;;;15.10;10.23;;;;;;;15.51;100.00;100085.31;4189973;28;20285;-63
2022/07/06 00:41:38;;;;;;;13.73;10.93;;;;;;;15.39;100.00;100083.09;4182082;28;25580;-62
2022/07/06 00:44:09;;;;;;;16.43;11.27;;;;;;;15.42;100.00;100073.84;4174957;28;20237;-63
2022/07/06 00:46:35;;;;;;;15.13;9.90;;;;;;;15.52;100.00;100076.25;4186118;28;20636;-64
2022/07/06 00:49:02;;;;;;;15.27;10.93;;;;;;;15.42;100.00;100068.47;4182111;28;20652;-64
2022/07/06 00:51:30;;;;;;;14.33;10.73;;;;;;;15.44;100.00;100071.00;4200377;28;20248;-64
2022/07/06 00:53:59;;;;;;;13.73;11.20;;;;;;;15.46;100.00;100075.16;4200609;28;20232;-63
2022/07/06 00:56:26;;;;;;;16.00;10.70;;;;;;;15.45;100.00;100069.97;4197838;28;23328;-63
2022/07/06 00:58:53;;;;;;;20.10;11.13;;;;;;;15.47;100.00;100070.63;4199748;28;20244;-62
2022/07/06 01:01:20;;;;;;;15.43;10.27;;;;;;;15.44;100.00;100063.78;4188128;28;20229;-65
2022/07/06 01:03:46;;;;;;;16.67;11.93;;;;;;;15.43;100.00;100058.59;4186848;28;20240;-65
2022/07/06 01:06:13;;;;;;;18.33;11.70;;;;;;;15.41;100.00;100053.44;4194282;28;21712;-63
2022/07/06 01:08:40;;;;;;;15.13;11.50;;;;;;;15.44;100.00;100053.03;4185376;28;20238;-63
2022/07/06 01:11:07;;;;;;;14.13;11.53;;;;;;;15.44;100.00;100057.59;4188814;28;20830;-64
2022/07/06 01:13:33;;;;;;;14.77;11.73;;;;;;;15.45;100.00;100046.66;4198821;28;20232;-64
2022/07/06 01:16:00;;;;;;;14.80;10.70;;;;;;;15.44;100.00;100057.59;4197474;28;20240;-63
2022/07/06 01:18:27;;;;;;;15.87;10.60;;;;;;;15.39;100.00;100050.91;4195909;28;20468;-63
2022/07/06 01:21:08;;;;;;;19.83;11.33;;;;;;;15.44;100.00;100055.72;4197815;28;23245;-44
2022/07/06 01:23:42;;;;;;;13.80;10.50;;;;;;;15.44;100.00;100054.91;4202614;28;20286;-40
2022/07/06 01:26:10;;;;;;;17.87;10.90;;;;;;;15.41;100.00;100048.06;4199256;28;23305;-62
2022/07/06 01:28:37;;;;;;;15.87;10.33;;;;;;;15.41;100.00;100046.22;4191070;28;20240;-63
2022/07/06 01:31:04;;;;;;;16.97;10.77;;;;;;;15.39;100.00;100052.78;4190780;28;20308;-62
2022/07/06 01:33:31;;;;;;;14.37;10.50;;;;;;;15.38;100.00;100053.78;4184485;28;20237;-63
2022/07/06 01:35:57;;;;;;;14.03;10.77;;;;;;;15.37;100.00;100052.13;4201893;28;22396;-63
2022/07/06 01:38:24;;;;;;;20.67;12.10;;;;;;;15.38;100.00;100053.78;4201286;28;20310;-63
2022/07/06 01:40:50;;;;;;;15.03;9.47;;;;;;;15.47;100.00;100058.03;4203015;28;20233;-62
2022/07/06 01:43:17;;;;;;;15.17;10.60;;;;;;;15.40;100.00;100052.59;4168589;28;20248;-64
2022/07/06 01:45:43;;;;;;;13.57;11.00;;;;;;;15.40;100.00;100057.97;4193065;28;20568;-64
2022/07/06 01:48:10;;;;;;;19.57;11.47;;;;;;;15.39;100.00;100050.09;4195793;28;21024;-64
2022/07/06 01:50:37;;;;;;;15.17;10.77;;;;;;;15.37;100.00;100047.59;4198078;28;20278;-63
2022/07/06 01:53:03;;;;;;;12.17;10.13;;;;;;;15.38;100.00;100051.09;4189238;28;20496;-63
2022/07/06 01:55:30;;;;;;;16.63;9.93;;;;;;;15.29;100.00;100039.66;4198708;28;20236;-63
2022/07/06 01:57:56;;;;;;;14.33;9.53;;;;;;;15.25;100.00;100041.03;4203577;28;20579;-63
2022/07/06 02:00:23;;;;;;;13.70;9.13;;;;;;;15.25;100.00;100040.22;4200776;28;20243;-63
2022/07/06 02:02:49;;;;;;;12.23;9.07;;;;;;;15.31;100.00;100034.09;4196587;28;23277;-62
2022/07/06 02:05:16;;;;;;;11.67;9.03;;;;;;;15.24;100.00;100033.16;4201035;28;20243;-65
2022/07/06 02:07:42;;;;;;;12.90;8.90;;;;;;;15.21;100.00;100031.69;4204500;28;23316;-62
2022/07/06 02:10:09;;;;;;;13.80;8.70;;;;;;;15.23;100.00;100035.03;4179440;28;20620;-62
2022/07/06 02:12:36;;;;;;;16.27;9.20;;;;;;;15.24;100.00;100030.50;4191390;28;20240;-62
2022/07/06 02:15:02;;;;;;;16.00;9.60;;;;;;;15.24;100.00;100030.50;4202820;28;21230;-63
2022/07/06 02:17:29;;;;;;;12.00;8.70;;;;;;;15.29;100.00;100036.13;4194806;28;20234;-62
2022/07/06 02:19:55;;;;;;;19.23;10.07;;;;;;;15.33;100.00;100030.19;4188678;28;20234;-65
2022/07/06 02:22:22;;;;;;;18.20;10.23;;;;;;;15.35;100.00;100030.03;4190226;28;20294;-64
2022/07/06 02:24:48;;;;;;;18.40;10.10;;;;;;;15.36;100.00;100029.84;4200812;28;20632;-62
2022/07/06 02:27:15;;;;;;;20.80;11.30;;;;;;;15.29;100.00;100039.66;4199162;28;20244;-63
2022/07/06 02:29:42;;;;;;;13.20;8.77;;;;;;;15.31;100.00;100036.78;4200498;28;20233;-63
2022/07/06 02:32:08;;;;;;;18.23;10.80;;;;;;;15.31;100.00;100040.31;4203244;28;21405;-63
2022/07/06 02:34:35;;;;;;;18.33;11.03;;;;;;;15.31;100.00;100047.50;4194872;28;20412;-63
2022/07/06 02:37:01;;;;;;;21.23;11.47;;;;;;;15.30;100.00;100045.84;4198162;28;20470;-65
2022/07/06 02:39:28;;;;;;;22.57;11.53;;;;;;;15.29;100.00;100050.38;4201898;28;21120;-64
2022/07/06 02:41:54;;;;;;;18.97;11.00;;;;;;;15.29;100.00;100049.53;4199624;28;20234;-63
2022/07/06 02:44:21;;;;;;;22.80;10.83;;;;;;;15.22;100.00;100054.81;4195725;28;20513;-63
2022/07/06 02:46:47;;;;;;;24.90;11.80;;;;;;;15.26;100.00;100045.38;4201248;28;20244;-64
2022/07/06 02:49:14;;;;;;;22.23;11.77;;;;;;;15.29;100.00;100050.38;4186486;28;20240;-63
2022/07/06 02:51:40;;;;;;;20.77;10.77;;;;;;;15.32;100.00;100054.53;4183312;28;21239;-64
2022/07/06 02:54:07;;;;;;;21.33;11.80;;;;;;;15.31;100.00;100040.31;4180329;28;21326;-63
2022/07/06 02:56:33;;;;;;;26.23;11.90;;;;;;;15.33;100.00;100043.59;4185774;28;22157;-63
2022/07/06 02:59:00;;;;;;;19.63;11.10;;;;;;;15.31;100.00;100032.28;4205001;28;21829;-63
2022/07/06 03:01:27;;;;;;;22.47;10.77;;;;;;;15.36;100.00;100037.91;4194391;28;20244;-62
2022/07/06 03:03:53;;;;;;;19.50;10.20;;;;;;;15.39;100.00;100037.50;4213648;28;20607;-62
2022/07/06 03:06:20;;;;;;;18.77;10.17;;;;;;;15.41;100.00;100042.69;4207125;28;20299;-63
2022/07/06 03:08:46;;;;;;;18.90;10.53;;;;;;;15.38;100.00;100037.69;4187099;28;21664;-65
2022/07/06 03:11:13;;;;;;;20.90;11.07;;;;;;;15.37;100.00;100044.09;4192458;28;25574;-63
2022/07/06 03:13:40;;;;;;;19.20;11.70;;;;;;;15.45;100.00;100040.47;4198206;28;23085;-64
2022/07/06 03:16:06;;;;;;;18.40;11.53;;;;;;;15.45;100.00;100035.94;4202786;28;20237;-63
2022/07/06 03:18:32;;;;;;;15.80;10.43;;;;;;;15.48;100.00;100040.94;4191646;28;20236;-63
2022/07/06 03:21:00;;;;;;;20.40;11.50;;;;;;;15.48;100.00;100032.91;4194882;28;22576;-64
2022/07/06 03:23:26;;;;;;;13.53;9.93;;;;;;;15.63;100.00;100027.50;4204801;28;20578;-62
2022/07/06 03:25:53;;;;;;;20.30;11.07;;;;;;;15.52;100.00;100020.78;4207955;28;21235;-63
2022/07/06 03:28:20;;;;;;;14.57;9.73;;;;;;;15.51;100.00;100024.47;4194577;28;20272;-61
2022/07/06 03:30:46;;;;;;;17.87;10.13;;;;;;;15.55;100.00;100017.72;4208461;28;25766;-63
2022/07/06 03:33:13;;;;;;;17.53;10.60;;;;;;;15.58;100.00;100024.56;4199537;28;20622;-64
2022/07/06 03:35:39;;;;;;;16.47;9.57;;;;;;;15.61;100.00;100025.00;4193116;28;22690;-62
2022/07/06 03:38:06;;;;;;;16.03;10.40;;;;;;;15.62;100.00;100023.16;4214482;28;20302;-62
2022/07/06 03:40:33;;;;;;;18.70;10.63;;;;;;;15.65;100.00;100016.59;4189596;28;21149;-63
2022/07/06 03:43:00;;;;;;;20.93;10.53;;;;;;;15.64;100.00;100023.81;4202528;28;21107;-63
2022/07/06 03:45:26;;;;;;;13.90;9.67;;;;;;;15.72;100.00;100022.91;4207823;28;20372;-62
2022/07/06 03:47:53;;;;;;;14.33;9.27;;;;;;;15.76;100.00;100014.28;4224285;28;20307;-65
2022/07/06 03:50:20;;;;;;;13.73;9.37;;;;;;;15.77;100.00;100018.59;4240317;28;20553;-62
2022/07/06 03:52:47;;;;;;;15.53;9.70;;;;;;;15.75;100.00;100011.78;4270013;28;20345;-62
2022/07/06 03:55:13;;;;;;;11.57;9.00;;;;;;;15.72;100.00;100021.03;4221543;28;20306;-62
2022/07/06 03:57:40;;;;;;;13.20;8.77;;;;;;;15.76;100.00;100022.31;4241077;28;22474;-64
2022/07/06 04:00:08;;;;;;;9.97;8.40;;;;;;;15.77;100.00;100023.16;4210247;28;21011;-63
2022/07/06 04:02:35;;;;;;;14.20;8.57;;;;;;;15.76;100.00;100024.19;4215128;28;20399;-64
2022/07/06 04:05:02;;;;;;;11.33;8.23;;;;;;;15.81;100.00;100022.59;4204039;28;20334;-63
2022/07/06 04:07:29;;;;;;;13.80;9.27;;;;;;;15.78;100.00;100016.75;4197145;28;21335;-63
2022/07/06 04:09:55;;;;;;;14.47;9.37;;;;;;;15.78;100.00;100011.38;4229735;28;20239;-63
2022/07/06 04:12:22;;;;;;;11.53;8.43;;;;;;;15.82;100.00;100012.69;4220397;28;20629;-63
2022/07/06 04:14:51;;;;;;;14.07;10.00;;;;;;;15.87;100.00;100010.25;4217356;28;20270;-62
2022/07/06 04:20:04;;;;;;;14.57;8.70;;;;;;;15.82;100.00;100008.13;4220200;28;20425;-62
2022/07/06 04:22:31;;;;;;;10.13;7.43;;;;;;;15.86;100.00;100007.78;4220642;28;20225;-65
2022/07/06 04:24:57;;;;;;;12.03;7.97;;;;;;;15.78;100.00;100016.75;4207951;28;21613;-62
2022/07/06 04:27:24;;;;;;;17.53;8.80;;;;;;;15.75;100.00;100017.13;4212444;28;21133;-62
2022/07/06 04:29:52;;;;;;;14.53;9.40;;;;;;;15.75;100.00;100007.22;4209691;28;21497;-64
2022/07/06 04:32:19;;;;;;;16.87;9.77;;;;;;;15.76;100.00;100008.91;4227464;28;22869;-63
2022/07/06 04:34:51;;;;;;;12.80;9.33;;;;;;;15.78;100.00;100000.66;4212760;28;21767;-63
2022/07/06 04:37:17;;;;;;;16.50;9.13;;;;;;;15.85;100.00;100012.31;4215459;28;21252;-63
2022/07/06 04:39:44;;;;;;;16.37;10.30;;;;;;;15.86;100.00;100008.59;4206387;28;20228;-64
2022/07/06 04:42:10;;;;;;;18.27;11.17;;;;;;;15.97;100.00;100021.53;4203113;28;20232;-63
2022/07/06 04:44:37;;;;;;;18.20;10.17;;;;;;;15.90;100.00;100012.56;4208021;28;20308;-63
2022/07/06 04:47:04;;;;;;;26.63;17.03;;;;;;;15.98;100.00;100012.44;4209192;28;20336;-63
2022/07/06 04:49:30;;;;;;;16.30;11.50;;;;;;;16.02;100.00;100003.00;4223216;28;20280;-62
2022/07/06 04:51:57;;;;;;;18.93;12.73;;;;;;;16.24;100.00;100005.66;4204815;28;20502;-62
2022/07/06 04:54:24;;;;;;;16.13;12.03;;;;;;;16.28;100.00;100001.59;4202584;28;20302;-64
2022/07/06 04:56:50;;;;;;;14.93;10.63;;;;;;;16.39;100.00;100009.13;4198682;28;20384;-64
2022/07/06 04:59:17;;;;;;;16.23;9.27;;;;;;;16.39;100.00;100005.63;4188472;28;20253;-62
2022/07/06 05:01:43;;;;;;;17.03;9.73;;;;;;;16.37;100.00;100013.84;4201251;28;20243;-64
2022/07/06 05:04:10;;;;;;;12.37;8.50;;;;;;;16.30;100.00;100012.97;4199326;28;21521;-64
2022/07/06 05:06:37;;;;;;;15.43;8.80;;;;;;;16.33;100.00;100007.19;4200941;28;20224;-65
2022/07/06 05:09:04;;;;;;;13.30;8.90;;;;;;;16.38;100.00;100015.50;4197390;28;20241;-63
2022/07/06 05:11:31;;;;;;;12.50;7.77;;;;;;;16.31;100.00;100022.66;4207484;28;20237;-64
2022/07/06 05:13:57;;;;;;;12.67;6.73;;;;;;;16.31;100.00;100020.00;4200488;28;20230;-64
2022/07/06 05:16:24;;;;;;;12.20;6.83;;;;;;;16.30;100.00;100004.91;4197938;28;20379;-63
2022/07/06 05:18:50;;;;;;;9.63;6.40;;;;;;;16.45;100.00;100015.56;4192716;28;20236;-64
2022/07/06 05:21:17;;;;;;;11.27;6.67;;;;;;;16.65;100.00;100008.50;4190432;28;20237;-63
2022/07/06 05:23:43;;;;;;;9.37;6.00;;;;;;;16.84;100.00;100016.94;4203116;28;20318;-65
2022/07/06 05:26:10;;;;;;;21.93;10.17;;;;;;;16.86;100.00;100010.34;4182819;28;21281;-65
2022/07/06 05:28:37;;;;;;;13.07;8.97;;;;;;;16.94;100.00;100016.59;4177989;28;20265;-66
2022/07/06 05:31:03;;;;;;;17.53;7.87;;;;;;;16.96;100.00;100018.06;4197988;28;20236;-65
2022/07/06 05:33:30;;;;;;;16.03;8.93;;;;;;;16.95;100.00;100018.25;4198229;28;20434;-64
2022/07/06 05:35:57;;;;;;;25.50;13.60;;;;;;;16.75;100.00;100020.78;4208256;28;20252;-69
2022/07/06 05:38:24;;;;;;;19.63;12.23;;;;;;;16.70;100.00;100018.66;4198975;28;20264;-65
2022/07/06 05:40:51;;;;;;;19.73;11.57;;;;;;;16.42;100.00;100014.09;4201859;28;20240;-69
2022/07/06 05:43:18;;;;;;;19.77;10.73;;;;;;;16.40;100.00;100023.38;4197259;28;20292;-65
2022/07/06 05:45:44;;;;;;;19.87;10.80;;;;;;;16.40;100.00;100029.56;4189829;28;20641;-68
2022/07/06 05:50:56;;;;;;;15.57;8.70;;;;;;;16.69;100.00;100019.69;4199388;28;20440;-67
2022/07/06 05:53:23;;;;;;;17.67;8.57;;;;;;;16.73;100.00;100029.03;4190299;28;20306;-65
2022/07/06 05:55:49;;;;;;;15.33;8.90;;;;;;;16.84;100.00;100030.38;4187993;28;21973;-64
2022/07/06 05:58:16;;;;;;;14.80;7.67;;;;;;;16.89;100.00;100033.31;4184227;28;21145;-70
2022/07/06 06:00:43;;;;;;;13.60;6.30;;;;;;;17.11;100.00;100035.91;4182660;28;20229;-67
2022/07/06 06:03:09;;;;;;;11.77;5.80;;;;;;;17.37;100.00;100038.78;4182114;28;20238;-68
2022/07/06 06:05:36;;;;;;;7.07;5.00;;;;;;;18.38;100.00;100043.47;4190234;28;20313;-69
2022/07/06 06:08:03;;;;;;;15.37;4.60;;;;;;;19.31;93.97;100048.78;4187149;28;22129;-64
2022/07/06 06:10:29;;;;;;;6.50;4.10;;;;;;;19.49;87.50;100055.41;4185406;28;21093;-63
2022/07/06 06:12:56;;;;;;;6.17;3.10;;;;;;;19.78;84.16;100062.16;4189669;28;25877;-62
2022/07/06 06:15:23;;;;;;;9.30;3.23;;;;;;;19.28;87.02;100053.78;4189805;28;20236;-63
2022/07/06 06:17:50;;;;;;;6.07;3.80;;;;;;;18.79;88.79;100058.63;4194233;28;20244;-63
2022/07/06 06:20:16;;;;;;;11.63;3.97;;;;;;;18.59;90.17;100063.16;4184613;28;21110;-64
2022/07/06 06:22:50;;;;;;;10.33;3.53;;;;;;;19.04;89.54;100058.00;4202111;28;20642;-64
2022/07/06 06:25:19;;;;;;;7.97;3.60;;;;;;;20.76;83.82;100069.88;4183163;28;25036;-62
2022/07/06 06:27:46;;;;;;;13.07;3.67;;;;;;;21.82;76.26;100067.97;4193866;28;20236;-64
2022/07/06 06:30:13;;;;;;;8.97;3.07;;;;;;;22.81;70.09;100075.72;4207462;28;20232;-61
2022/07/06 06:32:40;;;;;;;7.20;2.93;;;;;;;23.85;64.98;100072.34;4169659;28;20242;-61
2022/07/06 06:35:07;;;;;;;7.30;2.30;;;;;;;25.14;58.73;100078.94;4186550;28;25731;-62
2022/07/06 06:37:34;;;;;;;9.37;2.40;;;;;;;26.72;52.96;100081.94;4185150;28;21316;-62
2022/07/06 06:40:01;;;;;;;10.70;3.07;;;;;;;26.80;49.57;100094.28;4194405;28;20316;-64
2022/07/06 06:42:27;;;;;;;11.60;2.90;;;;;;;27.44;48.60;100098.81;4179764;28;22375;-63
2022/07/06 06:44:54;;;;;;;7.03;2.70;;;;;;;27.17;48.23;100097.81;4185026;28;20237;-62
2022/07/06 06:47:20;;;;;;;6.23;2.50;;;;;;;27.14;48.40;100098.34;4181687;28;20527;-63
2022/07/06 06:49:47;;;;;;;11.37;3.07;;;;;;;27.34;46.81;100105.88;4184115;28;21753;-68
2022/07/06 06:52:14;;;;;;;8.97;2.47;;;;;;;25.65;50.14;100087.84;4188084;28;21257;-63
2022/07/06 06:55:00;;;;;;;9.27;2.57;;;;;;;23.82;56.60;100074.75;4179497;28;21805;-62
2022/07/06 06:57:28;;;;;;;4.90;2.83;;;;;;;22.49;63.21;100067.06;4181338;28;20237;-63
2022/07/06 06:59:55;;;;;;;6.10;3.10;;;;;;;21.96;66.29;100063.22;4206107;28;20656;-60
2022/07/06 07:02:22;;;;;;;8.50;2.97;;;;;;;21.55;68.61;100061.22;4211702;28;20247;-64
2022/07/06 07:04:48;;;;;;;8.93;3.03;;;;;;;21.97;70.11;100064.03;4220752;28;20235;-62
2022/07/06 07:07:15;;;;;;;4.10;2.50;;;;;;;23.86;61.17;100076.75;4240422;28;20610;-61
2022/07/06 07:09:42;;;;;;;5.60;3.57;;;;;;;23.46;58.23;100068.53;4212743;28;20236;-64
2022/07/06 07:12:10;;;;;;;7.47;2.90;;;;;;;22.93;62.28;100067.59;4215190;28;20342;-65
2022/07/06 07:14:36;;;;;;;11.10;4.00;;;;;;;22.95;61.50;100063.59;4209503;28;20240;-62
2022/07/06 07:17:03;;;;;;;6.57;3.13;;;;;;;23.73;60.44;100076.97;4230845;28;20341;-64
2022/07/06 07:19:29;;;;;;;10.00;3.23;;;;;;;24.54;55.70;100082.38;4229737;28;21451;-63
2022/07/06 07:21:56;;;;;;;13.70;3.70;;;;;;;25.20;54.56;100080.72;4206541;28;22717;-63
2022/07/06 07:24:22;;;;;;;6.57;3.60;;;;;;;25.61;52.91;100092.16;4215187;28;26023;-63
2022/07/06 07:26:49;;;;;;;8.57;3.60;;;;;;;24.98;53.79;100082.50;4210362;28;22788;-64
2022/07/06 07:29:15;;;;;;;7.50;3.13;;;;;;;22.85;59.75;100062.50;4213492;28;20286;-66
2022/07/06 07:31:42;;;;;;;7.93;3.47;;;;;;;21.88;64.67;100061.63;4217665;28;20244;-66
2022/07/06 07:34:09;;;;;;;7.30;3.60;;;;;;;20.86;70.03;100055.84;4220331;28;20242;-66
2022/07/06 07:36:35;;;;;;;9.13;3.20;;;;;;;20.58;71.04;100054.44;4205680;28;20236;-65
2022/07/06 07:39:02;;;;;;;12.90;3.90;;;;;;;20.53;73.15;100056.91;4202526;28;20244;-66
2022/07/06 07:41:29;;;;;;;7.20;2.93;;;;;;;20.28;72.06;100056.91;4203815;28;20434;-66
2022/07/06 07:43:56;;;;;;;6.67;2.60;;;;;;;21.07;69.68;100065.44;4235604;28;20893;-66
2022/07/06 07:46:22;;;;;;;6.30;2.30;;;;;;;21.63;64.58;100082.56;4220063;28;20229;-64
2022/07/06 07:48:49;;;;;;;8.13;2.47;;;;;;;21.85;64.70;100082.94;4209980;28;20571;-66
2022/07/06 07:51:16;;;;;;;6.27;1.90;;;;;;;22.22;61.88;100089.16;4250448;28;20835;-64
2022/07/06 07:53:42;;;;;;;9.47;1.93;;;;;;;22.74;60.01;100092.13;4212058;28;22804;-63
2022/07/06 07:56:09;;;;;;;7.90;2.10;;;;;;;23.54;56.92;100092.63;4217384;28;20303;-64
2022/07/06 07:58:36;;;;;;;6.00;1.70;;;;;;;24.07;54.37;100101.56;4225640;28;20239;-69
2022/07/06 08:01:04;;;;;;;7.23;1.50;;;;;;;24.39;52.86;100099.19;4215902;28;20231;-68
2022/07/06 08:03:31;;;;;;;5.33;1.60;;;;;;;24.01;53.03;100104.19;4209123;28;21416;-65
2022/07/06 08:05:58;;;;;;;6.33;1.53;;;;;;;23.41;52.86;100101.00;4235729;28;20331;-67
2022/07/06 08:08:25;;;;;;;6.57;1.40;;;;;;;23.40;51.04;100092.03;4200785;28;20236;-66
2022/07/06 08:10:53;;;;;;;8.10;1.60;;;;;;;23.11;53.03;100101.97;4222340;28;20228;-68
2022/07/06 08:13:39;;;;;;;1.87;1.10;;;;;;;23.32;50.76;100100.53;4203988;28;21055;-64
2022/07/06 08:16:06;;;;;;;5.33;1.77;;;;;;;23.55;50.85;100096.97;4186472;28;22871;-64
2022/07/06 08:18:33;;;;;;;5.00;1.43;;;;;;;23.68;48.62;100096.72;4200884;28;20244;-62
2022/07/06 08:21:00;;;;;;;7.00;1.40;;;;;;;24.21;49.06;100105.69;4225698;28;20237;-63
2022/07/06 08:23:47;;;;;;;3.90;1.40;;;;;;;23.93;47.24;100103.78;4209291;28;20236;-66
2022/07/06 08:26:13;;;;;;;5.80;1.20;;;;;;;23.36;49.13;100099.00;4198401;28;22919;-64
2022/07/06 08:28:43;;;;;;;5.60;1.17;;;;;;;22.86;51.49;100089.41;4203714;28;23507;-62
2022/07/06 08:31:10;;;;;;;2.67;0.97;;;;;;;23.12;50.26;100093.59;4211101;28;21666;-62
2022/07/06 08:33:56;;;;;;;3.10;1.20;;;;;;;23.71;48.12;100085.34;4212559;28;22202;-62
2022/07/06 08:36:26;;;;;;;4.97;1.27;;;;;;;23.63;47.53;100087.63;4226264;28;20275;-65
2022/07/06 08:38:53;;;;;;;6.20;1.20;;;;;;;23.64;48.45;100087.38;4214246;28;20220;-63
2022/07/06 08:41:21;;;;;;;5.83;1.30;;;;;;;24.17;47.03;100090.91;4221104;28;21142;-67
2022/07/06 08:43:52;;;;;;;2.83;1.10;;;;;;;23.32;47.11;100092.38;4209836;28;20412;-66
2022/07/06 08:46:19;;;;;;;2.63;0.90;;;;;;;23.25;46.50;100097.97;4208627;28;20232;-65
2022/07/06 08:48:47;;;;;;;2.47;1.20;;;;;;;23.59;46.93;100088.09;4227073;28;20229;-74
2022/07/06 08:51:14;;;;;;;3.83;1.23;;;;;;;24.16;47.20;100095.53;4209409;28;20302;-64
2022/07/06 08:53:44;;;;;;;1.37;0.77;;;;;;;23.87;44.99;100100.13;4219817;28;20241;-64
2022/07/06 08:56:11;;;;;;;4.03;1.00;;;;;;;23.61;46.16;100101.44;4217808;28;21237;-63
2022/07/06 08:58:41;;;;;;;3.47;1.07;;;;;;;24.12;43.84;100101.69;4208597;28;20297;-65
2022/07/06 09:01:11;;;;;;;5.00;1.43;;;;;;;24.01;43.06;100106.91;4214717;28;24003;-65
2022/07/06 09:03:41;;;;;;;4.43;0.90;;;;;;;23.17;44.66;100104.56;4203206;28;20603;-64
2022/07/06 09:06:08;;;;;;;3.70;0.70;;;;;;;22.61;46.93;100107.75;4204318;28;21042;-66
2022/07/06 09:08:36;;;;;;;2.20;0.60;;;;;;;22.84;44.15;100107.00;4203054;28;20610;-66
2022/07/06 09:11:03;;;;;;;6.63;0.70;;;;;;;22.81;43.41;100112.91;4199488;28;20271;-66
2022/07/06 09:13:30;;;;;;;2.23;0.80;;;;;;;22.99;41.80;100107.38;4200025;28;20232;-66
2022/07/06 09:16:09;;;;;;;2.43;0.80;;;;;;;23.05;40.59;100109.16;4193159;28;21190;-66
2022/07/06 09:18:56;;;;;;;2.63;0.50;;;;;;;23.20;40.49;100107.88;4208682;28;20386;-67
2022/07/06 09:21:27;;;;;;;2.10;0.70;;;;;;;23.14;39.36;100105.03;4210166;28;20229;-68
2022/07/06 09:23:58;;;;;;;2.80;0.90;;;;;;;22.94;41.48;100104.50;4206665;28;20235;-66
2022/07/06 09:26:25;;;;;;;2.13;0.80;;;;;;;23.25;41.35;100099.81;4213605;28;20235;-65
2022/07/06 09:28:54;;;;;;;1.77;0.90;;;;;;;23.21;41.34;100096.78;4184693;28;20266;-65
2022/07/06 09:31:21;;;;;;;3.03;0.73;;;;;;;23.13;40.08;100094.41;4203754;28;20236;-65
2022/07/06 09:33:59;;;;;;;3.37;1.00;;;;;;;23.47;41.54;100089.19;4190147;28;20611;-66
2022/07/06 09:36:44;;;;;;;2.83;0.80;;;;;;;23.40;40.20;100089.31;4188404;28;20233;-63
2022/07/06 09:39:28;;;;;;;3.37;0.73;;;;;;;22.53;41.98;100088.06;4197736;28;20327;-64
2022/07/06 09:41:59;;;;;;;2.33;0.80;;;;;;;22.45;41.73;100092.97;4197178;28;20354;-65
2022/07/06 09:44:33;;;;;;;3.03;0.97;;;;;;;22.52;42.00;100097.28;4214559;28;21458;-63
2022/07/06 09:47:02;;;;;;;1.30;0.63;;;;;;;22.76;40.95;100100.84;4202573;28;20708;-65
2022/07/06 09:49:29;;;;;;;5.20;1.63;;;;;;;22.96;39.47;100096.97;4190643;28;21385;-66
2022/07/06 09:51:58;;;;;;;2.77;0.63;;;;;;;22.97;38.96;100091.31;4179478;28;20951;-64
2022/07/06 09:54:25;;;;;;;2.47;0.50;;;;;;;23.26;39.54;100093.34;4177600;28;20233;-67
2022/07/06 09:56:52;;;;;;;2.20;0.60;;;;;;;23.50;37.97;100086.81;4219824;28;21232;-66
2022/07/06 09:59:21;;;;;;;0.70;0.50;;;;;;;23.58;37.75;100091.91;4199441;28;20432;-64
2022/07/06 10:01:51;;;;;;;2.70;0.60;;;;;;;23.36;38.75;100093.56;4201011;28;20245;-63
2022/07/06 10:04:19;;;;;;;6.07;0.70;;;;;;;23.22;36.49;100100.31;4201796;28;21178;-64
2022/07/06 10:06:47;;;;;;;1.63;0.50;;;;;;;23.30;35.93;100102.69;4193710;28;20236;-66
2022/07/06 10:09:14;;;;;;;3.93;1.13;;;;;;;23.24;35.40;100095.47;4176681;28;21497;-64
2022/07/06 10:11:44;;;;;;;3.73;0.50;;;;;;;22.93;35.81;100094.72;4203239;28;25071;-63
2022/07/06 10:14:13;;;;;;;1.50;0.60;;;;;;;22.58;37.31;100097.41;4191410;28;20303;-64
2022/07/06 10:16:40;;;;;;;2.13;0.60;;;;;;;22.27;39.09;100093.88;4180905;28;20360;-64
2022/07/06 10:19:08;;;;;;;4.00;0.70;;;;;;;22.59;41.37;100094.44;4169185;28;20309;-66
2022/07/06 10:21:39;;;;;;;2.47;0.60;;;;;;;23.01;40.62;100091.69;4170462;28;20228;-63
2022/07/06 10:24:07;;;;;;;1.50;0.80;;;;;;;23.41;37.59;100090.13;4177538;28;23153;-64
2022/07/06 10:26:34;;;;;;;3.20;0.73;;;;;;;23.57;36.77;100095.66;4192649;28;21813;-61
2022/07/06 10:29:03;;;;;;;4.73;0.90;;;;;;;23.03;38.06;100103.13;4185185;28;23379;-66
2022/07/06 10:31:30;;;;;;;2.63;0.90;;;;;;;23.04;40.17;100107.53;4194010;28;20376;-67
2022/07/06 10:33:58;;;;;;;3.37;0.67;;;;;;;22.96;37.71;100096.97;4198024;28;20236;-65
2022/07/06 10:36:25;;;;;;;3.73;0.77;;;;;;;23.11;38.30;100107.41;4204692;28;21236;-65
2022/07/06 10:38:52;;;;;;;1.13;0.60;;;;;;;23.29;36.52;100103.72;4190324;28;22224;-66
2022/07/06 10:41:30;;;;;;;2.03;0.80;;;;;;;23.51;35.17;100091.19;4186751;28;20354;-64
2022/07/06 10:43:57;;;;;;;2.23;0.50;;;;;;;23.53;35.78;100094.50;4185895;28;20231;-68
2022/07/06 10:46:28;;;;;;;1.23;0.50;;;;;;;23.59;36.75;100103.59;4185757;28;20237;-63
2022/07/06 10:48:57;;;;;;;4.00;0.73;;;;;;;23.65;33.70;100101.78;4194663;28;20262;-64
2022/07/06 10:51:28;;;;;;;2.50;0.70;;;;;;;23.46;35.61;100110.09;4188098;28;21731;-64
2022/07/06 10:53:56;;;;;;;1.87;0.53;;;;;;;23.41;36.37;100111.88;4198129;28;20603;-65
2022/07/06 10:56:52;;;;;;;3.40;0.70;;;;;;;23.39;37.30;100109.41;4189269;28;21200;-65
2022/07/06 10:59:20;;;;;;;2.10;0.70;;;;;;;23.66;36.28;100103.44;4188387;28;20233;-66
2022/07/06 11:02:12;;;;;;;4.30;0.50;;;;;;;23.44;35.47;100105.97;4198531;28;20900;-63
2022/07/06 11:04:40;;;;;;;2.60;0.80;;;;;;;23.42;35.98;100108.94;4211502;28;20303;-64
2022/07/06 11:07:09;;;;;;;4.40;0.90;;;;;;;22.98;35.99;100113.84;4198130;28;20236;-64
2022/07/06 11:09:37;;;;;;;3.03;1.10;;;;;;;23.23;36.08;100113.66;4209591;28;20234;-67
2022/07/06 11:12:19;;;;;;;3.47;0.80;;;;;;;23.41;36.49;100107.25;4204557;28;20242;-65
2022/07/06 11:14:47;;;;;;;4.20;0.70;;;;;;;23.42;35.11;100110.81;4185987;28;20228;-67
2022/07/06 11:17:14;;;;;;;1.77;0.70;;;;;;;23.34;35.31;100106.56;4203647;28;20377;-63
2022/07/06 11:19:55;;;;;;;1.87;0.80;;;;;;;23.11;36.65;100108.22;4208093;28;21623;-65
2022/07/06 11:22:24;;;;;;;2.90;0.50;;;;;;;23.07;33.94;100107.03;4205174;28;20240;-66